Quito, Ecuador
Current Conditions -  °F | °C
As of 4:00 AM on Thursday 23 Oct 2014 (Local Time) from SEQM Reporting Station
Haze Haze  
Wind Chill: 55°   Ceiling: 800
Heat Index: 55°   Visibility: 1.8mi
Dew Point: 54°   Wind: 2mph
Humidity: 94%   Direction: 200°SSW
Pressure: 30.27"   Gusts: NA
Location:  0.19°S, 78.5°W
Report Text: SEQM 230900Z 20002KT 3000 1000S BR SCT003 BKN008 13/12 Q1025 NOSIG RMK A3028
Loading
Personal Weather Stations






























Interactive Weather Map
Tropical Storm Tracking
New forecast layout! Learn more

10-Day Weather Forecast

Advertisements
Track Severe Weather on mobile